Impacts TAF Board
For situational awareness. Not to be used for flight planning purposes.
IDs:

KPDX - Portland Intl Arpt, OR, US

Issued at 2107 UTC 20 Oct 2018
Updated at 2141 UTC 20 Oct 2018
Potential Impact None Slight Moderate High
Time2053Z 20/22Z 20/23Z 21/00Z 21/01Z 21/02Z 21/03Z 21/04Z 21/05Z 21/06Z 21/07Z 21/08Z 21/09Z 21/10Z>>
Type OBS PRVL PRVL PRVL PRVL PRVL PRVL PRVL PRVL PRVL PRVL PRVL PRVL PRVL
VIS 10 >6 >6 >6 >6 >6 >6 >6 >6 >6 >6 >6 >6 3
CIG -- -- -- -- -- -- -- -- -- -- -- -- -- 3
Cover CLR SKC SKC SKC SKC SKC SKC SKC SKC SKC SKC SKC SKC BKN
FltCat VFR VFR VFR VFR VFR VFR VFR VFR VFR VFR VFR VFR VFR LIFR
WX -- -- -- -- -- -- -- -- -- -- -- -- -- BR
WDir 290 290 290 290 320 320 320 320 320 320 VRB VRB VRB VRB
WSpd 9 9 9 9 6 6 6 6 6 6 3 3 3 3
WGst -- -- -- -- -- -- -- -- -- -- -- -- -- --
Raw TAF
KPDX 202107Z 2021/2118 29009KT P6SM SKC
  FM210100 32006KT P6SM SKC
  FM210700 VRB03KT P6SM SKC
  FM211000 VRB03KT 3SM BR BKN003


Raw METAR
KPDX 202053Z 29009KT 10SM CLR 17/08 A3007 RMK AO2 SLP183 T01670083 58026
KPDX 201953Z 28011KT 10SM CLR 15/08 A3011 RMK AO2 SLP195 T01500083
KPDX 201853Z 31006KT 10SM FEW020 13/08 A3013 RMK AO2 SLP203 T01330083
KPDX 201843Z 29006KT 10SM FEW015 13/08 A3014 RMK AO2 T01330083

METAR Board
Radar Display
Forecast Discussion
For situational awareness. Not to be used for flight planning purposes.